createdAt,value
2023-01-29T05:00:51.386Z,94.26
2023-01-29T05:01:51.331Z,94.36
2023-01-29T05:02:51.393Z,94.05
2023-01-29T05:03:51.258Z,94.15
2023-01-29T05:04:51.258Z,94.36
2023-01-29T05:05:51.274Z,94.26
2023-01-29T05:06:51.257Z,94.36
2023-01-29T05:07:51.192Z,94.57
2023-01-29T05:08:51.214Z,94.89
2023-01-29T05:09:51.168Z,95.41
2023-01-29T05:10:51.206Z,95.51
2023-01-29T05:11:51.244Z,95.51
2023-01-29T05:12:51.158Z,95.72
2023-01-29T05:13:51.120Z,95.83
2023-01-29T05:14:51.145Z,96.04
2023-01-29T05:15:58.149Z,95.51
2023-01-29T05:16:51.111Z,95.62
2023-01-29T05:17:51.470Z,95.62
2023-01-29T05:18:51.090Z,95.72
2023-01-29T05:19:51.049Z,95.51
2023-01-29T05:20:51.049Z,95.51
2023-01-29T05:21:51.022Z,95.72
2023-01-29T05:22:51.021Z,95.83
2023-01-29T05:23:51.071Z,95.93
2023-01-29T05:24:51.026Z,95.93
2023-01-29T05:25:50.975Z,95.93
2023-01-29T05:26:50.987Z,95.93
2023-01-29T05:27:50.944Z,95.83
2023-01-29T05:28:50.976Z,95.62
2023-01-29T05:29:51.007Z,95.72
2023-01-29T05:30:50.990Z,95.62
2023-01-29T05:31:50.959Z,95.41
2023-01-29T05:32:50.900Z,95.51
2023-01-29T05:33:50.903Z,95.72
2023-01-29T05:34:50.892Z,95.83
2023-01-29T05:35:50.869Z,95.83
2023-01-29T05:36:50.870Z,95.83
2023-01-29T05:37:50.830Z,95.93
2023-01-29T05:38:50.871Z,95.83
2023-01-29T05:39:50.791Z,95.51
2023-01-29T05:40:50.810Z,95.62
2023-01-29T05:41:50.793Z,95.83
2023-01-29T05:42:50.769Z,95.62
2023-01-29T05:43:51.051Z,95.51
2023-01-29T05:44:50.751Z,95.20
2023-01-29T05:45:50.745Z,95.51
2023-01-29T05:46:50.729Z,95.41
2023-01-29T05:47:50.723Z,94.99
2023-01-29T05:48:50.679Z,94.99
2023-01-29T05:49:50.787Z,94.57
2023-01-29T05:50:50.658Z,94.26
2023-01-29T05:51:50.680Z,94.26
2023-01-29T05:52:50.647Z,94.26
2023-01-29T05:53:50.650Z,94.46
2023-01-29T05:54:50.604Z,94.78
2023-01-29T05:55:50.667Z,94.99
2023-01-29T05:56:50.580Z,95.20
2023-01-29T05:57:50.582Z,95.31
2023-01-29T05:58:50.556Z,95.20
2023-01-29T05:59:50.569Z,95.20
2023-01-29T06:00:50.542Z,94.68
2023-01-29T06:01:51.115Z,94.26
2023-01-29T06:02:50.566Z,93.74
2023-01-29T06:03:50.505Z,93.63
2023-01-29T06:04:50.474Z,93.63
2023-01-29T06:05:50.494Z,93.74
2023-01-29T06:06:50.453Z,93.84
2023-01-29T06:07:50.509Z,93.32
2023-01-29T06:08:50.428Z,93.01
2023-01-29T06:09:50.441Z,93.01
2023-01-29T06:10:50.399Z,93.21
2023-01-29T06:11:50.421Z,93.42
2023-01-29T06:12:50.383Z,93.63
2023-01-29T06:13:50.435Z,94.05
2023-01-29T06:14:50.359Z,94.15
2023-01-29T06:15:50.454Z,94.26
2023-01-29T06:16:50.349Z,94.36
2023-01-29T06:17:50.338Z,94.36
2023-01-29T06:18:50.321Z,94.26
2023-01-29T06:19:50.372Z,93.95
2023-01-29T06:20:50.278Z,93.74
2023-01-29T06:21:50.286Z,93.84
2023-01-29T06:22:50.256Z,93.95
2023-01-29T06:23:50.281Z,93.95
2023-01-29T06:24:50.229Z,93.84
2023-01-29T06:25:50.319Z,93.84
2023-01-29T06:26:50.205Z,93.84
2023-01-29T06:27:50.224Z,93.84
2023-01-29T06:28:50.183Z,93.74
2023-01-29T06:29:50.199Z,94.05
2023-01-29T06:30:50.180Z,94.30
2023-01-29T06:31:50.300Z,94.09
2023-01-29T06:32:50.121Z,94.20
2023-01-29T06:33:50.135Z,94.40
2023-01-29T06:34:50.107Z,94.15
2023-01-29T06:35:50.120Z,94.26
2023-01-29T06:36:50.073Z,94.40
2023-01-29T06:37:50.139Z,94.51
2023-01-29T06:38:50.094Z,94.46
2023-01-29T06:39:50.071Z,94.68
2023-01-29T06:40:50.029Z,94.78
2023-01-29T06:41:50.033Z,94.89
2023-01-29T06:42:50.033Z,94.57
2023-01-29T06:43:50.096Z,94.57
2023-01-29T06:44:50.037Z,94.57
2023-01-29T06:45:50.063Z,94.57
2023-01-29T06:46:49.948Z,94.36
2023-01-29T06:47:49.963Z,94.15
2023-01-29T06:48:49.930Z,94.05
2023-01-29T06:49:49.980Z,94.05
2023-01-29T06:50:49.896Z,94.05
2023-01-29T06:51:49.913Z,93.95
2023-01-29T06:52:49.889Z,93.63
2023-01-29T06:53:49.888Z,93.74
2023-01-29T06:54:49.923Z,93.74
2023-01-29T06:55:49.863Z,93.74
2023-01-29T06:56:49.829Z,93.84
2023-01-29T06:57:49.823Z,93.74
2023-01-29T06:58:49.811Z,93.52
2023-01-29T06:59:49.923Z,93.32
2023-01-29T07:00:49.849Z,93.32
2023-01-29T07:01:49.847Z,93.42
2023-01-29T07:02:49.757Z,93.63
2023-01-29T07:03:49.763Z,93.84
2023-01-29T07:04:49.724Z,94.15
2023-01-29T07:05:49.792Z,94.57
2023-01-29T07:06:49.691Z,94.46
2023-01-29T07:07:49.691Z,94.26
2023-01-29T07:08:49.673Z,93.84
2023-01-29T07:09:49.697Z,93.52
2023-01-29T07:10:49.640Z,93.21
2023-01-29T07:11:49.763Z,93.32
2023-01-29T07:12:49.616Z,93.52
2023-01-29T07:13:49.623Z,93.84
2023-01-29T07:14:49.612Z,93.95
2023-01-29T07:15:49.618Z,93.63
2023-01-29T07:16:49.566Z,93.52
2023-01-29T07:17:50.496Z,93.74
2023-01-29T07:18:49.538Z,93.84
2023-01-29T07:19:49.545Z,93.74
2023-01-29T07:20:49.520Z,93.21
2023-01-29T07:21:49.535Z,93.11
2023-01-29T07:22:49.494Z,93.32
2023-01-29T07:23:49.692Z,93.21
2023-01-29T07:24:49.463Z,93.32
2023-01-29T07:25:49.485Z,92.58
2023-01-29T07:26:49.445Z,92.69
2023-01-29T07:27:49.445Z,92.58
2023-01-29T07:28:49.426Z,92.27
2023-01-29T07:29:49.527Z,92.48
2023-01-29T07:30:49.416Z,92.58
2023-01-29T07:31:49.541Z,92.58
2023-01-29T07:32:49.391Z,92.38
2023-01-29T07:33:49.395Z,91.96
2023-01-29T07:34:49.351Z,91.96
2023-01-29T07:35:49.552Z,91.96
2023-01-29T07:36:49.326Z,92.06
2023-01-29T07:37:49.320Z,92.06
2023-01-29T07:38:49.304Z,91.64
2023-01-29T07:39:49.309Z,91.02
2023-01-29T07:40:49.297Z,91.12
2023-01-29T07:41:49.297Z,91.12
2023-01-29T07:42:49.250Z,91.22
2023-01-29T07:43:49.260Z,90.91
2023-01-29T07:44:49.218Z,90.91
2023-01-29T07:45:49.298Z,90.59
2023-01-29T07:46:49.187Z,90.70
2023-01-29T07:47:49.206Z,91.12
2023-01-29T07:48:49.179Z,91.33
2023-01-29T07:49:49.184Z,91.33
2023-01-29T07:50:49.322Z,91.33
2023-01-29T07:51:49.153Z,91.22
2023-01-29T07:52:49.118Z,91.18
2023-01-29T07:53:49.127Z,91.43
2023-01-29T07:54:49.130Z,91.39
2023-01-29T07:55:49.110Z,91.28
2023-01-29T07:56:49.481Z,90.97
2023-01-29T07:57:49.073Z,90.87
2023-01-29T07:58:49.050Z,90.87
2023-01-29T07:59:49.051Z,90.77
2023-01-29T08:00:49.078Z,90.45
2023-01-29T08:01:49.065Z,90.45
2023-01-29T08:02:49.003Z,90.77
2023-01-29T08:03:50.580Z,90.56
2023-01-29T08:04:48.961Z,90.20
2023-01-29T08:05:48.992Z,89.99
2023-01-29T08:06:49.026Z,89.68
2023-01-29T08:08:00.841Z,89.99
2023-01-29T08:08:49.918Z,89.89
2023-01-29T08:09:48.939Z,89.68
2023-01-29T08:10:48.893Z,89.05
2023-01-29T08:11:48.890Z,88.84
2023-01-29T08:12:48.940Z,88.74
2023-01-29T08:13:48.886Z,88.42
2023-01-29T08:14:48.838Z,87.90
2023-01-29T08:15:48.879Z,87.48
2023-01-29T08:16:48.887Z,87.48
2023-01-29T08:17:57.453Z,87.80
2023-01-29T08:18:49.990Z,87.80
2023-01-29T08:19:48.809Z,87.90
2023-01-29T08:20:48.782Z,88.17
2023-01-29T08:21:48.794Z,88.59
2023-01-29T08:22:48.767Z,89.11
2023-01-29T08:23:48.823Z,89.22
2023-01-29T08:24:54.273Z,88.90
2023-01-29T08:25:49.818Z,88.49
2023-01-29T08:26:48.692Z,88.13
2023-01-29T08:27:48.713Z,87.93
2023-01-29T08:28:48.690Z,87.40
2023-01-29T08:29:48.676Z,87.40
2023-01-29T08:30:48.684Z,87.19
2023-01-29T08:31:48.688Z,86.67
2023-01-29T08:32:48.616Z,87.19
2023-01-29T08:33:48.625Z,87.71
2023-01-29T08:34:48.595Z,86.05
2023-01-29T08:35:48.769Z,85.94
2023-01-29T08:36:48.558Z,85.11
2023-01-29T08:37:48.566Z,84.48
2023-01-29T08:38:48.537Z,84.48
2023-01-29T08:39:48.550Z,83.75
2023-01-29T08:40:48.517Z,83.95
2023-01-29T08:41:48.554Z,84.48
2023-01-29T08:42:48.506Z,84.06
2023-01-29T08:43:48.497Z,84.38
2023-01-29T08:44:48.457Z,84.79
2023-01-29T08:45:48.485Z,85.00
2023-01-29T08:46:48.502Z,85.00
2023-01-29T08:47:48.435Z,85.31
2023-01-29T08:48:48.403Z,85.52
2023-01-29T08:49:48.415Z,85.21
2023-01-29T08:50:48.395Z,84.48
2023-01-29T08:51:48.474Z,84.48
2023-01-29T08:52:48.352Z,84.69
2023-01-29T08:53:50.006Z,84.69
2023-01-29T08:54:48.325Z,83.75
2023-01-29T08:55:48.333Z,83.54
2023-01-29T08:56:48.299Z,83.54
2023-01-29T08:57:48.373Z,83.64
2023-01-29T08:58:48.282Z,83.23
2023-01-29T08:59:48.282Z,83.01
2023-01-29T09:00:48.245Z,83.23
2023-01-29T09:01:48.260Z,83.44
2023-01-29T09:02:48.255Z,83.33
2023-01-29T09:03:48.290Z,82.81
2023-01-29T09:04:48.190Z,82.91
2023-01-29T09:05:48.215Z,83.12
2023-01-29T09:06:48.174Z,83.12
2023-01-29T09:07:48.180Z,82.81
2023-01-29T09:08:48.141Z,82.70
2023-01-29T09:09:48.347Z,82.91
2023-01-29T09:10:48.128Z,82.81
2023-01-29T09:11:48.125Z,83.23
2023-01-29T09:12:48.088Z,83.44
2023-01-29T09:13:48.095Z,83.54
2023-01-29T09:14:48.057Z,83.44
2023-01-29T09:15:48.138Z,83.23
2023-01-29T09:16:48.110Z,83.08
2023-01-29T09:17:48.052Z,83.18
2023-01-29T09:18:48.046Z,82.87
2023-01-29T09:19:48.047Z,81.73
2023-01-29T09:20:48.022Z,81.35
2023-01-29T09:21:48.094Z,81.66
2023-01-29T09:22:47.967Z,81.76
2023-01-29T09:23:47.962Z,81.76
2023-01-29T09:24:47.951Z,81.97
2023-01-29T09:25:47.978Z,82.18
2023-01-29T09:26:47.943Z,81.87
2023-01-29T09:27:47.953Z,81.76
2023-01-29T09:28:47.891Z,81.21
2023-01-29T09:29:47.928Z,81.73
2023-01-29T09:30:47.997Z,81.83
2023-01-29T09:31:47.964Z,81.62
2023-01-29T09:32:54.605Z,81.48
2023-01-29T09:33:48.850Z,80.44
2023-01-29T09:34:47.811Z,80.33
2023-01-29T09:35:47.833Z,81.06
2023-01-29T09:36:47.779Z,81.13
2023-01-29T09:37:47.818Z,80.09
2023-01-29T09:38:48.063Z,79.67
2023-01-29T09:39:47.768Z,79.67
2023-01-29T09:40:47.731Z,79.67
2023-01-29T09:41:47.739Z,79.11
2023-01-29T09:42:47.708Z,78.80
2023-01-29T09:43:47.718Z,78.59
2023-01-29T09:44:47.740Z,77.86
2023-01-29T09:45:47.705Z,77.34
2023-01-29T09:46:47.654Z,78.38
2023-01-29T09:47:47.656Z,77.37
2023-01-29T09:48:47.642Z,77.90
2023-01-29T09:49:47.642Z,78.21
2023-01-29T09:50:47.673Z,78.42
2023-01-29T09:51:47.607Z,78.28
2023-01-29T09:52:47.584Z,78.83
2023-01-29T09:53:47.611Z,79.46
2023-01-29T09:54:47.553Z,79.46
2023-01-29T09:55:47.589Z,79.43
2023-01-29T09:56:47.554Z,78.91
2023-01-29T09:57:47.521Z,78.69
2023-01-29T09:58:47.554Z,78.80
2023-01-29T09:59:47.487Z,79.22
2023-01-29T10:00:48.011Z,79.01
2023-01-29T10:01:47.573Z,78.80
2023-01-29T10:02:47.469Z,78.80
2023-01-29T10:03:47.439Z,78.80
2023-01-29T10:04:47.479Z,78.59
2023-01-29T10:05:47.411Z,78.69
2023-01-29T10:06:47.501Z,78.80
2023-01-29T10:07:47.403Z,78.80
2023-01-29T10:08:47.435Z,78.87
2023-01-29T10:09:47.368Z,78.56
2023-01-29T10:10:47.383Z,78.77
2023-01-29T10:11:47.349Z,78.59
2023-01-29T10:12:47.406Z,78.49
2023-01-29T10:13:47.324Z,78.66
2023-01-29T10:14:47.339Z,78.77
2023-01-29T10:15:47.299Z,78.20
2023-01-29T10:16:47.379Z,77.69
2023-01-29T10:17:48.459Z,76.75
2023-01-29T10:18:47.528Z,75.98
2023-01-29T10:19:47.259Z,75.36
2023-01-29T10:20:47.244Z,75.22
2023-01-29T10:21:47.235Z,74.18
2023-01-29T10:22:47.225Z,73.94
2023-01-29T10:23:47.543Z,73.52
2023-01-29T10:24:47.200Z,73.73
2023-01-29T10:25:47.162Z,74.15
2023-01-29T10:26:47.302Z,74.57
2023-01-29T10:27:47.135Z,74.32
2023-01-29T10:28:47.139Z,73.18
2023-01-29T10:29:47.183Z,72.73
2023-01-29T10:30:47.263Z,72.52
2023-01-29T10:31:47.221Z,71.80
2023-01-29T10:32:47.095Z,72.07
2023-01-29T10:34:48.071Z,72.90
2023-01-29T10:35:47.067Z,72.69
2023-01-29T10:36:47.061Z,71.24
2023-01-29T10:37:47.017Z,71.66
2023-01-29T10:38:47.068Z,72.80
2023-01-29T10:39:46.979Z,73.32
2023-01-29T10:40:47.023Z,73.18
2023-01-29T10:41:46.951Z,72.25
2023-01-29T10:42:46.960Z,71.31
2023-01-29T10:43:46.921Z,70.48
2023-01-29T10:44:47.034Z,71.24
2023-01-29T10:45:46.910Z,71.24
2023-01-29T10:46:46.895Z,70.62
2023-01-29T10:47:46.960Z,70.93
2023-01-29T10:48:46.897Z,69.92
2023-01-29T10:49:46.858Z,70.23
2023-01-29T10:50:46.927Z,70.86
2023-01-29T10:51:46.856Z,71.14
2023-01-29T10:52:46.846Z,70.51
2023-01-29T10:53:46.818Z,70.51
2023-01-29T10:54:46.829Z,70.83
2023-01-29T10:55:46.775Z,70.20
2023-01-29T10:56:47.988Z,71.03
2023-01-29T10:57:46.762Z,70.72
2023-01-29T10:58:46.896Z,71.42
2023-01-29T10:59:46.720Z,70.69
2023-01-29T11:00:46.751Z,70.83
2023-01-29T11:01:46.742Z,70.51
2023-01-29T11:02:47.413Z,71.03
2023-01-29T11:03:46.674Z,71.24
2023-01-29T11:04:46.694Z,71.24
2023-01-29T11:05:46.658Z,71.34
2023-01-29T11:06:46.669Z,71.14
2023-01-29T11:07:46.648Z,70.93
2023-01-29T11:08:46.805Z,70.48
2023-01-29T11:09:46.597Z,69.96
2023-01-29T11:10:46.613Z,69.31
2023-01-29T11:11:46.562Z,69.52
2023-01-29T11:12:46.618Z,69.31
2023-01-29T11:13:46.539Z,69.10
2023-01-29T11:14:46.772Z,69.21
2023-01-29T11:15:53.551Z,68.69
2023-01-29T11:16:46.549Z,68.48
2023-01-29T11:17:46.488Z,68.55
2023-01-29T11:18:46.487Z,67.93
2023-01-29T11:19:46.497Z,67.72
2023-01-29T11:20:46.476Z,67.65
2023-01-29T11:21:46.427Z,67.86
2023-01-29T11:22:46.461Z,67.89
2023-01-29T11:23:46.411Z,68.41
2023-01-29T11:24:46.503Z,69.13
2023-01-29T11:25:46.406Z,69.55
2023-01-29T11:26:46.412Z,69.03
2023-01-29T11:27:46.427Z,69.24
2023-01-29T11:28:46.387Z,68.93
2023-01-29T11:29:46.383Z,69.48
2023-01-29T11:30:46.416Z,69.48
2023-01-29T11:31:46.326Z,69.37
2023-01-29T11:32:46.333Z,69.58
2023-01-29T11:33:46.273Z,69.55
2023-01-29T11:34:46.336Z,69.65
2023-01-29T11:35:46.273Z,69.34
2023-01-29T11:36:46.258Z,69.65
2023-01-29T11:37:46.232Z,69.13
2023-01-29T11:38:46.240Z,69.86
2023-01-29T11:39:46.353Z,69.68
2023-01-29T11:40:46.223Z,69.89
2023-01-29T11:41:46.188Z,70.07
2023-01-29T11:42:46.195Z,68.75
2023-01-29T11:43:46.139Z,69.27
2023-01-29T11:44:46.207Z,70.34
2023-01-29T11:45:46.188Z,70.97
2023-01-29T11:46:46.208Z,70.97
2023-01-29T11:47:46.088Z,70.20
2023-01-29T11:48:46.169Z,70.10
2023-01-29T11:49:46.219Z,69.58
2023-01-29T11:50:46.070Z,69.27
2023-01-29T11:51:46.043Z,69.40
2023-01-29T11:52:46.184Z,69.71
2023-01-29T11:53:46.239Z,70.54
2023-01-29T11:54:46.218Z,69.48
2023-01-29T11:55:50.720Z,70.00
2023-01-29T11:56:47.008Z,70.17
2023-01-29T11:57:46.078Z,69.65
2023-01-29T11:58:46.018Z,69.62
2023-01-29T11:59:46.243Z,69.21
2023-01-29T12:00:45.937Z,68.69
2023-01-29T12:01:45.951Z,68.24
2023-01-29T12:02:45.915Z,68.03
2023-01-29T12:03:45.905Z,67.72
2023-01-29T12:04:45.893Z,67.69
2023-01-29T12:05:47.645Z,67.48
2023-01-29T12:06:45.886Z,66.75
2023-01-29T12:07:45.858Z,66.86
2023-01-29T12:08:45.885Z,68.13
2023-01-29T12:09:45.827Z,68.13
2023-01-29T12:10:46.042Z,67.55
2023-01-29T12:11:45.820Z,67.79
2023-01-29T12:12:45.802Z,68.23
2023-01-29T12:13:45.844Z,68.65
2023-01-29T12:14:45.853Z,68.96
2023-01-29T12:15:45.731Z,69.89
2023-01-29T12:16:45.797Z,69.65
2023-01-29T12:17:45.708Z,69.34
2023-01-29T12:18:45.718Z,69.37
2023-01-29T12:19:45.710Z,69.40
2023-01-29T12:20:45.688Z,69.92
2023-01-29T12:21:45.639Z,69.61
2023-01-29T12:22:45.923Z,70.13
2023-01-29T12:23:45.627Z,70.48
2023-01-29T12:24:45.644Z,70.86
2023-01-29T12:25:45.608Z,71.48
2023-01-29T12:26:45.678Z,71.86
2023-01-29T12:27:45.568Z,71.45
2023-01-29T12:28:45.744Z,70.90
2023-01-29T12:29:45.539Z,69.96
2023-01-29T12:30:45.625Z,69.45
2023-01-29T12:31:45.569Z,69.37
2023-01-29T12:32:45.617Z,69.79
2023-01-29T12:33:45.519Z,70.10
2023-01-29T12:34:45.695Z,69.96
2023-01-29T12:35:45.462Z,69.96
2023-01-29T12:36:45.495Z,69.55
2023-01-29T12:37:45.479Z,69.34
2023-01-29T12:38:45.457Z,69.31
2023-01-29T12:39:45.424Z,69.00
2023-01-29T12:40:45.742Z,68.59
2023-01-29T12:41:46.170Z,68.27
2023-01-29T12:42:46.056Z,68.13
2023-01-29T12:43:45.459Z,68.65
2023-01-29T12:44:45.424Z,68.24
2023-01-29T12:45:45.595Z,68.13
2023-01-29T12:46:45.379Z,67.90
2023-01-29T12:47:45.367Z,67.79
2023-01-29T12:48:53.379Z,67.69
2023-01-29T12:49:53.064Z,67.48
2023-01-29T12:50:52.390Z,67.69
2023-01-29T12:51:52.338Z,67.48
2023-01-29T12:52:45.273Z,67.38
2023-01-29T12:53:45.235Z,67.58
2023-01-29T12:54:45.259Z,67.41
2023-01-29T12:55:45.249Z,68.13
2023-01-29T12:56:45.222Z,68.34
2023-01-29T12:57:45.193Z,68.24
2023-01-29T12:58:45.211Z,67.82
2023-01-29T12:59:45.197Z,68.86
2023-01-29T13:00:45.571Z,68.65
2023-01-29T13:01:45.151Z,68.55
2023-01-29T13:02:45.179Z,68.76
2023-01-29T13:03:45.166Z,68.44
2023-01-29T13:04:45.142Z,67.93
2023-01-29T13:05:45.092Z,68.65
2023-01-29T13:06:45.207Z,67.82
2023-01-29T13:07:45.069Z,68.34
2023-01-29T13:08:45.066Z,68.24
2023-01-29T13:09:45.028Z,68.55
2023-01-29T13:10:45.056Z,68.73
2023-01-29T13:11:45.066Z,68.03
2023-01-29T13:12:45.014Z,68.21
2023-01-29T13:13:44.987Z,68.00
2023-01-29T13:14:45.006Z,67.82
2023-01-29T13:15:44.968Z,67.82
2023-01-29T13:16:45.171Z,67.93
2023-01-29T13:17:44.936Z,67.72
2023-01-29T13:18:44.947Z,67.82
2023-01-29T13:19:44.913Z,67.51
2023-01-29T13:20:44.947Z,68.03
2023-01-29T13:21:44.924Z,67.86
2023-01-29T13:22:44.884Z,68.27
2023-01-29T13:23:44.891Z,68.17
2023-01-29T13:24:55.484Z,68.17
2023-01-29T13:25:45.837Z,68.59
2023-01-29T13:26:44.988Z,69.21
2023-01-29T13:27:44.815Z,69.10
2023-01-29T13:28:44.842Z,68.59
2023-01-29T13:29:44.772Z,69.21
2023-01-29T13:30:44.942Z,69.24
2023-01-29T13:31:44.842Z,68.72
2023-01-29T13:32:45.784Z,69.13
2023-01-29T13:33:44.739Z,69.65
2023-01-29T13:34:44.759Z,69.96
2023-01-29T13:35:44.730Z,69.24
2023-01-29T13:36:44.797Z,70.07
2023-01-29T13:37:44.673Z,69.65
2023-01-29T13:38:44.750Z,69.55
2023-01-29T13:39:44.688Z,69.24
2023-01-29T13:40:44.718Z,69.13
2023-01-29T13:41:44.689Z,69.76
2023-01-29T13:42:44.667Z,69.86
2023-01-29T13:43:44.598Z,69.45
2023-01-29T13:44:44.612Z,69.45
2023-01-29T13:45:44.651Z,69.55
2023-01-29T13:46:44.653Z,69.65
2023-01-29T13:47:44.597Z,69.52
2023-01-29T13:48:44.599Z,69.42
2023-01-29T13:49:44.527Z,69.48
2023-01-29T13:50:44.606Z,69.17
2023-01-29T13:51:44.649Z,68.55
2023-01-29T13:52:44.549Z,68.62
2023-01-29T13:53:44.467Z,68.52
2023-01-29T13:54:44.485Z,67.27
2023-01-29T13:55:44.445Z,67.27
2023-01-29T13:56:44.513Z,67.48
2023-01-29T13:57:44.442Z,67.58
2023-01-29T13:58:44.439Z,67.07
2023-01-29T13:59:44.409Z,66.86
2023-01-29T14:00:44.425Z,66.86
2023-01-29T14:01:44.509Z,67.27
2023-01-29T14:02:44.453Z,68.00
2023-01-29T14:04:03.356Z,68.24
2023-01-29T14:04:45.354Z,68.34
2023-01-29T14:05:44.407Z,68.44
2023-01-29T14:06:44.304Z,68.13
2023-01-29T14:07:44.926Z,68.34
2023-01-29T14:08:44.294Z,68.24
2023-01-29T14:09:44.291Z,68.55
2023-01-29T14:10:44.281Z,68.34
2023-01-29T14:11:44.294Z,68.13
2023-01-29T14:12:44.242Z,68.90
2023-01-29T14:13:44.344Z,68.59
2023-01-29T14:14:44.235Z,68.69
2023-01-29T14:15:44.239Z,69.10
2023-01-29T14:16:44.223Z,69.42
2023-01-29T14:17:44.202Z,69.52
2023-01-29T14:18:44.139Z,69.38
2023-01-29T14:19:44.539Z,68.90
2023-01-29T14:20:46.099Z,68.86
2023-01-29T14:21:44.127Z,68.38
2023-01-29T14:22:44.090Z,69.00
2023-01-29T14:23:44.138Z,68.79
2023-01-29T14:24:44.056Z,69.21
2023-01-29T14:25:44.533Z,69.45
2023-01-29T14:26:44.110Z,69.76
2023-01-29T14:27:44.060Z,69.55
2023-01-29T14:28:44.038Z,69.65
2023-01-29T14:29:44.056Z,69.55
2023-01-29T14:30:44.081Z,69.62
2023-01-29T14:31:44.130Z,69.55
2023-01-29T14:33:51.471Z,69.86
2023-01-29T14:34:51.448Z,69.96
2023-01-29T14:35:50.985Z,70.48
2023-01-29T14:36:51.612Z,70.59
2023-01-29T14:37:51.458Z,70.28
2023-01-29T14:38:43.883Z,70.20
2023-01-29T14:39:43.902Z,70.62
2023-01-29T14:40:43.870Z,70.31
2023-01-29T14:41:43.898Z,70.62
2023-01-29T14:42:43.950Z,70.83
2023-01-29T14:43:43.863Z,70.83
2023-01-29T14:44:43.836Z,70.83
2023-01-29T14:45:43.866Z,70.62
2023-01-29T14:46:43.801Z,70.62
2023-01-29T14:47:43.866Z,70.83
2023-01-29T14:48:43.779Z,71.03
2023-01-29T14:49:43.771Z,71.34
2023-01-29T14:50:43.738Z,71.14
2023-01-29T14:51:43.783Z,70.83
2023-01-29T14:52:43.785Z,71.14
2023-01-29T14:53:43.771Z,71.24
2023-01-29T14:54:43.688Z,71.45
2023-01-29T14:55:43.692Z,71.45
2023-01-29T14:56:43.646Z,71.76
2023-01-29T14:57:43.856Z,71.97
2023-01-29T14:58:43.623Z,72.21
2023-01-29T14:59:43.637Z,72.52
2023-01-29T15:00:43.622Z,72.52
2023-01-29T15:01:43.698Z,72.31
2023-01-29T15:02:43.664Z,72.21
2023-01-29T15:03:43.943Z,72.31
2023-01-29T15:04:43.556Z,72.83
2023-01-29T15:05:43.588Z,73.14
2023-01-29T15:06:43.563Z,72.76
2023-01-29T15:07:43.527Z,73.07
2023-01-29T15:08:43.706Z,72.86
2023-01-29T15:09:43.605Z,73.07
2023-01-29T15:10:43.482Z,72.76
2023-01-29T15:11:43.515Z,72.90
2023-01-29T15:12:43.450Z,73.32
2023-01-29T15:13:43.505Z,73.32
2023-01-29T15:14:43.479Z,73.42
2023-01-29T15:15:43.533Z,73.63
2023-01-29T15:16:43.397Z,73.83
2023-01-29T15:17:43.415Z,74.25
2023-01-29T15:18:43.367Z,74.04
2023-01-29T15:19:43.395Z,73.94
2023-01-29T15:20:43.425Z,73.83
2023-01-29T15:21:43.361Z,73.73
2023-01-29T15:22:43.323Z,74.15
2023-01-29T15:23:43.363Z,74.04
2023-01-29T15:24:43.303Z,73.63
2023-01-29T15:25:43.306Z,73.73
2023-01-29T15:26:43.660Z,73.83
2023-01-29T15:27:43.278Z,74.15
2023-01-29T15:28:47.125Z,74.25
2023-01-29T15:29:44.255Z,74.04
2023-01-29T15:30:43.346Z,74.15
2023-01-29T15:31:43.934Z,74.29
2023-01-29T15:32:43.451Z,74.60
2023-01-29T15:33:43.225Z,74.49
2023-01-29T15:34:43.205Z,74.70
2023-01-29T15:35:43.186Z,74.70
2023-01-29T15:36:43.142Z,74.91
2023-01-29T15:37:43.149Z,75.36
2023-01-29T15:38:43.425Z,75.57
2023-01-29T15:39:43.152Z,75.67
2023-01-29T15:40:43.109Z,75.57
2023-01-29T15:41:43.119Z,75.78
2023-01-29T15:42:43.090Z,75.88
2023-01-29T15:43:43.111Z,75.98
2023-01-29T15:44:43.072Z,76.20
2023-01-29T15:45:43.047Z,76.12
2023-01-29T15:46:43.015Z,76.23
2023-01-29T15:47:43.068Z,76.65
2023-01-29T15:48:43.059Z,77.06
2023-01-29T15:49:43.040Z,77.27
2023-01-29T15:50:43.044Z,77.37
2023-01-29T15:51:42.997Z,77.31
2023-01-29T15:52:42.947Z,77.51
2023-01-29T15:53:43.062Z,77.72
2023-01-29T15:54:42.926Z,77.83
2023-01-29T15:55:42.928Z,78.03
2023-01-29T15:56:42.882Z,78.24
2023-01-29T15:57:42.902Z,78.49
2023-01-29T15:58:42.853Z,78.69
2023-01-29T15:59:42.923Z,78.80
2023-01-29T16:00:42.830Z,78.91
2023-01-29T16:01:42.898Z,79.22
2023-01-29T16:02:42.931Z,79.32
2023-01-29T16:03:42.814Z,79.88
2023-01-29T16:04:42.781Z,79.98
2023-01-29T16:05:42.865Z,79.88
2023-01-29T16:06:42.781Z,80.30
2023-01-29T16:07:42.770Z,80.40
2023-01-29T16:08:42.831Z,80.51
2023-01-29T16:09:42.748Z,80.75
2023-01-29T16:10:42.816Z,81.06
2023-01-29T16:11:42.711Z,81.16
2023-01-29T16:12:42.675Z,81.38
2023-01-29T16:13:42.731Z,81.48
2023-01-29T16:14:42.676Z,81.69
2023-01-29T16:15:42.750Z,81.69
2023-01-29T16:16:43.502Z,81.90
2023-01-29T16:17:42.638Z,82.14
2023-01-29T16:18:59.603Z,82.35
2023-01-29T16:22:03.122Z,83.12
2023-01-29T16:23:09.975Z,83.23
2023-01-29T16:24:10.007Z,83.85
2023-01-29T16:25:09.978Z,83.75
2023-01-29T16:26:02.423Z,83.75
2023-01-29T16:27:02.431Z,83.89
2023-01-29T16:28:02.479Z,84.31
2023-01-29T16:29:02.409Z,84.73
2023-01-29T16:30:02.378Z,84.94
2023-01-29T16:31:04.329Z,84.94
2023-01-29T16:32:02.468Z,85.04
2023-01-29T16:33:02.424Z,85.04
2023-01-29T16:34:02.378Z,85.29
2023-01-29T16:35:02.326Z,85.39
2023-01-29T16:36:02.356Z,85.81
2023-01-29T16:37:02.315Z,86.02
2023-01-29T16:38:02.289Z,86.23
2023-01-29T16:39:02.287Z,86.79
2023-01-29T16:40:02.375Z,87.10
2023-01-29T16:41:02.276Z,87.94
2023-01-29T16:42:02.251Z,88.26
2023-01-29T16:43:02.233Z,88.57
2023-01-29T16:44:02.195Z,89.03
2023-01-29T16:45:02.637Z,89.55
2023-01-29T16:46:02.178Z,89.45
2023-01-29T16:47:02.203Z,89.34
2023-01-29T16:48:02.152Z,90.28
2023-01-29T16:49:02.192Z,92.90
2023-01-29T16:50:02.179Z,93.15
2023-01-29T16:51:02.267Z,91.89
2023-01-29T16:52:02.111Z,91.47
2023-01-29T16:53:02.115Z,91.47
2023-01-29T16:54:02.132Z,92.10
2023-01-29T16:55:02.204Z,92.63
2023-01-29T16:56:02.091Z,92.57
2023-01-29T16:57:02.097Z,94.03
2023-01-29T16:58:02.035Z,95.92
2023-01-29T16:59:02.029Z,95.60
2023-01-29T17:00:02.043Z,95.81
2023-01-29T17:01:02.134Z,96.23
2023-01-29T17:02:01.983Z,94.76
2023-01-29T17:03:02.008Z,93.71
2023-01-29T17:04:02.011Z,93.51
2023-01-29T17:05:02.021Z,93.71
2023-01-29T17:06:01.930Z,94.24
2023-01-29T17:07:02.008Z,94.24
2023-01-29T17:08:01.895Z,94.45
2023-01-29T17:09:01.956Z,94.34
2023-01-29T17:10:01.920Z,94.13
2023-01-29T17:11:01.941Z,94.28
2023-01-29T17:12:01.865Z,94.18
2023-01-29T17:13:01.869Z,93.97
2023-01-29T17:14:01.824Z,94.18
2023-01-29T17:15:01.937Z,93.97
2023-01-29T17:16:08.885Z,93.97
2023-01-29T17:17:01.809Z,94.07
2023-01-29T17:18:03.448Z,94.28
2023-01-29T17:19:01.776Z,94.54
2023-01-29T17:20:01.764Z,94.64
2023-01-29T17:21:01.876Z,94.95
2023-01-29T17:22:01.715Z,95.48
2023-01-29T17:23:01.727Z,96.00
2023-01-29T17:24:01.691Z,96.73
2023-01-29T17:25:01.710Z,96.73
2023-01-29T17:26:01.713Z,96.73
2023-01-29T17:27:01.697Z,97.30
2023-01-29T17:28:01.642Z,97.99
2023-01-29T17:29:01.643Z,98.83
2023-01-29T17:30:01.614Z,98.52
2023-01-29T17:31:06.613Z,98.10
2023-01-29T17:32:02.668Z,97.78
2023-01-29T17:33:01.592Z,98.10
2023-01-29T17:34:01.571Z,98.52
2023-01-29T17:35:01.582Z,98.83
2023-01-29T17:36:01.595Z,98.52
2023-01-29T17:37:01.591Z,98.31
2023-01-29T17:38:01.522Z,97.89
2023-01-29T17:39:01.544Z,97.36
2023-01-29T17:40:03.067Z,97.16
2023-01-29T17:41:01.562Z,97.16
2023-01-29T17:42:01.489Z,97.16
2023-01-29T17:43:01.496Z,97.26
2023-01-29T17:44:01.436Z,97.68
2023-01-29T17:45:01.458Z,98.14
2023-01-29T17:46:01.533Z,98.46
2023-01-29T17:47:01.418Z,98.56
2023-01-29T17:48:01.396Z,98.67
2023-01-29T17:49:01.413Z,98.98
2023-01-29T17:50:01.381Z,99.30
2023-01-29T17:51:01.423Z,99.61
2023-01-29T17:52:01.347Z,99.99
2023-01-29T17:53:01.356Z,99.99
2023-01-29T17:54:01.328Z,99.99
2023-01-29T17:55:01.350Z,99.99
2023-01-29T17:56:01.351Z,99.99
2023-01-29T17:57:01.340Z,99.99